Time;durP1;ratioP1;P1;durP2;ratioP2;P2;SDS_P1;SDS_P2;PMS_P1;PMS_P2;Temp;Humidity;BMP_temperature;BMP_pressure;BME280_temperature;BME280_humidity;BME280_pressure;Samples;Min_cycle;Max_cycle;Signal;HPM_P1;HPM_P2
2020/12/26 00:01:01;;;;;;;1.97;1.40;;;;;;;;;;5074995;28;20401;-74
2020/12/26 00:03:27;;;;;;;1.60;1.20;;;;;;;;;;5072236;28;20490;-74
2020/12/26 00:05:53;;;;;;;1.50;1.30;;;;;;;;;;5075165;28;20445;-73
2020/12/26 00:08:19;;;;;;;3.60;1.47;;;;;;;;;;5080886;28;20420;-74
2020/12/26 00:10:45;;;;;;;1.60;1.30;;;;;;;;;;5095341;28;20408;-74
2020/12/26 00:13:11;;;;;;;4.23;1.60;;;;;;;;;;5081630;28;20484;-74
2020/12/26 00:15:37;;;;;;;1.87;1.50;;;;;;;;;;5054480;28;20794;-74
2020/12/26 00:18:03;;;;;;;2.50;1.67;;;;;;;;;;5063492;28;20446;-74
2020/12/26 00:20:29;;;;;;;1.83;1.20;;;;;;;;;;5096919;28;20428;-74
2020/12/26 00:22:55;;;;;;;2.00;1.50;;;;;;;;;;5089402;28;20484;-73
2020/12/26 00:25:21;;;;;;;2.27;1.90;;;;;;;;;;5074016;28;20771;-73
2020/12/26 00:27:47;;;;;;;2.07;1.60;;;;;;;;;;5066566;28;20425;-73
2020/12/26 00:30:13;;;;;;;2.27;1.57;;;;;;;;;;5073949;28;20423;-73
2020/12/26 00:32:39;;;;;;;2.07;1.60;;;;;;;;;;5072921;28;20393;-72
2020/12/26 00:35:05;;;;;;;2.50;2.30;;;;;;;;;;5071863;28;20504;-72
2020/12/26 00:37:31;;;;;;;2.37;2.07;;;;;;;;;;5091802;28;20431;-72
2020/12/26 00:39:57;;;;;;;2.47;2.23;;;;;;;;;;5091709;28;20497;-73
2020/12/26 00:42:23;;;;;;;3.67;2.27;;;;;;;;;;5093811;28;20454;-73
2020/12/26 00:44:49;;;;;;;4.47;2.40;;;;;;;;;;5092126;28;20438;-73
2020/12/26 00:47:15;;;;;;;3.30;2.73;;;;;;;;;;5094104;28;20480;-73
2020/12/26 00:49:41;;;;;;;2.63;2.00;;;;;;;;;;5074008;28;20444;-73
2020/12/26 00:52:08;;;;;;;2.93;2.60;;;;;;;;;;5093970;28;20400;-74
2020/12/26 00:54:33;;;;;;;4.43;2.80;;;;;;;;;;5091832;28;20428;-73
2020/12/26 00:56:59;;;;;;;2.80;2.43;;;;;;;;;;5094180;28;20408;-73
2020/12/26 00:59:25;;;;;;;2.43;2.07;;;;;;;;;;5091642;28;20447;-73
2020/12/26 01:01:55;;;;;;;2.90;2.43;;;;;;;;;;5093458;28;20895;-73
2020/12/26 01:04:21;;;;;;;4.13;2.07;;;;;;;;;;5091592;28;20423;-73
2020/12/26 01:06:56;;;;;;;3.17;2.20;;;;;;;;;;5093504;28;20409;-73
2020/12/26 01:09:22;;;;;;;3.00;2.43;;;;;;;;;;5089883;28;20447;-73
2020/12/26 01:11:49;;;;;;;2.70;2.23;;;;;;;;;;5093497;28;20411;-74
2020/12/26 01:14:15;;;;;;;2.37;2.17;;;;;;;;;;5092425;28;20435;-73
2020/12/26 01:16:41;;;;;;;5.30;2.40;;;;;;;;;;5093386;28;20419;-74
2020/12/26 01:19:07;;;;;;;2.97;2.50;;;;;;;;;;5091775;28;20454;-73
2020/12/26 01:21:33;;;;;;;3.13;2.27;;;;;;;;;;5093344;28;20771;-73
2020/12/26 01:23:59;;;;;;;4.33;2.43;;;;;;;;;;5091313;28;20506;-73
2020/12/26 01:26:25;;;;;;;2.27;2.00;;;;;;;;;;5093311;28;20407;-73
2020/12/26 01:28:51;;;;;;;1.87;1.67;;;;;;;;;;5084728;28;20473;-73
2020/12/26 01:31:17;;;;;;;2.37;2.07;;;;;;;;;;5077444;28;20408;-73
2020/12/26 01:33:43;;;;;;;3.23;2.57;;;;;;;;;;5083920;28;20420;-73
2020/12/26 01:36:13;;;;;;;2.73;2.20;;;;;;;;;;5097936;28;20860;-73
2020/12/26 01:38:39;;;;;;;2.87;2.33;;;;;;;;;;5095509;28;20563;-73
2020/12/26 01:41:06;;;;;;;3.37;2.03;;;;;;;;;;5097505;28;20407;-73
2020/12/26 01:43:32;;;;;;;2.10;1.80;;;;;;;;;;5093218;28;20459;-73
2020/12/26 01:45:58;;;;;;;3.40;2.27;;;;;;;;;;5079030;28;20487;-73
2020/12/26 01:48:25;;;;;;;2.53;1.87;;;;;;;;;;5091805;28;20546;-73
2020/12/26 01:50:51;;;;;;;3.30;2.23;;;;;;;;;;5076966;28;20405;-73
2020/12/26 01:53:19;;;;;;;2.40;2.13;;;;;;;;;;5074006;28;20444;-73
2020/12/26 01:55:45;;;;;;;3.27;2.43;;;;;;;;;;5056760;28;20819;-73
2020/12/26 01:58:13;;;;;;;2.50;2.23;;;;;;;;;;5070765;28;20432;-73
2020/12/26 02:00:39;;;;;;;2.53;2.17;;;;;;;;;;5076577;28;20425;-74
2020/12/26 02:03:05;;;;;;;2.47;1.97;;;;;;;;;;5075740;28;20456;-74
2020/12/26 02:05:31;;;;;;;2.90;2.40;;;;;;;;;;5076499;28;20411;-73
2020/12/26 02:07:57;;;;;;;2.00;1.80;;;;;;;;;;5075639;28;20451;-74
2020/12/26 02:10:23;;;;;;;4.73;2.60;;;;;;;;;;5076376;28;20940;-73
2020/12/26 02:12:49;;;;;;;2.53;2.00;;;;;;;;;;5073908;28;20425;-73
2020/12/26 02:15:15;;;;;;;5.10;3.10;;;;;;;;;;5076356;28;20935;-73
2020/12/26 02:17:41;;;;;;;4.67;2.60;;;;;;;;;;5083604;28;20448;-73
2020/12/26 02:20:08;;;;;;;5.97;2.60;;;;;;;;;;5074916;28;20492;-73
2020/12/26 02:22:34;;;;;;;4.67;2.83;;;;;;;;;;5082578;28;20600;-73
2020/12/26 02:25:00;;;;;;;4.03;3.00;;;;;;;;;;5110536;22;20479;-85
2020/12/26 02:27:26;;;;;;;3.97;2.83;;;;;;;;;;5097000;28;20534;-85
2020/12/26 02:29:54;;;;;;;5.57;3.00;;;;;;;;;;5086560;28;20658;-85
2020/12/26 02:32:20;;;;;;;3.83;3.10;;;;;;;;;;5082736;28;20436;-85
2020/12/26 02:34:46;;;;;;;4.00;3.03;;;;;;;;;;5099553;28;20441;-85
2020/12/26 02:37:15;;;;;;;4.00;2.60;;;;;;;;;;5077019;28;20429;-85
2020/12/26 02:39:41;;;;;;;5.43;2.67;;;;;;;;;;5076734;28;20405;-84
2020/12/26 02:42:07;;;;;;;4.10;3.30;;;;;;;;;;5078918;28;20459;-85
2020/12/26 02:44:33;;;;;;;5.00;3.60;;;;;;;;;;5098067;28;20409;-85
2020/12/26 02:46:59;;;;;;;3.60;2.97;;;;;;;;;;5084917;28;20407;-86
2020/12/26 02:49:25;;;;;;;4.40;3.30;;;;;;;;;;5121502;28;20404;-86
2020/12/26 02:51:51;;;;;;;4.00;2.50;;;;;;;;;;5118926;28;20416;-86
2020/12/26 02:54:17;;;;;;;5.47;3.10;;;;;;;;;;5100214;28;20443;-85
2020/12/26 02:56:43;;;;;;;5.40;3.90;;;;;;;;;;5082780;28;20425;-85
2020/12/26 02:59:09;;;;;;;5.77;4.23;;;;;;;;;;5081912;28;20448;-85
2020/12/26 03:01:39;;;;;;;5.50;3.13;;;;;;;;;;5092393;28;20460;-87
2020/12/26 03:04:05;;;;;;;5.63;3.90;;;;;;;;;;5085217;28;20452;-86
2020/12/26 03:06:31;;;;;;;5.17;3.63;;;;;;;;;;5085367;28;20448;-86
2020/12/26 03:08:57;;;;;;;5.80;3.50;;;;;;;;;;5096204;28;20443;-86
2020/12/26 03:11:23;;;;;;;7.37;4.13;;;;;;;;;;5105644;28;20396;-86
2020/12/26 03:13:50;;;;;;;4.80;3.50;;;;;;;;;;5092737;28;20429;-85
2020/12/26 03:16:17;;;;;;;6.30;4.00;;;;;;;;;;5085508;28;20413;-86
2020/12/26 03:18:44;;;;;;;5.03;3.47;;;;;;;;;;5093418;28;20451;-85
2020/12/26 03:21:10;;;;;;;5.90;3.57;;;;;;;;;;5091187;28;20445;-86
2020/12/26 03:23:36;;;;;;;5.13;3.70;;;;;;;;;;5064923;28;20470;-86
2020/12/26 03:26:02;;;;;;;5.73;3.60;;;;;;;;;;5065258;28;20386;-85
2020/12/26 03:28:28;;;;;;;4.60;3.97;;;;;;;;;;5080226;28;20489;-86
2020/12/26 03:30:54;;;;;;;5.30;3.10;;;;;;;;;;5102212;28;20914;-86
2020/12/26 03:33:20;;;;;;;8.33;4.10;;;;;;;;;;5078637;28;20433;-86
2020/12/26 03:35:46;;;;;;;9.67;4.57;;;;;;;;;;5084251;28;20486;-85
2020/12/26 03:38:12;;;;;;;5.20;4.03;;;;;;;;;;5079676;28;20466;-85
2020/12/26 03:40:38;;;;;;;5.93;4.10;;;;;;;;;;5065098;28;20414;-85
2020/12/26 03:43:04;;;;;;;7.77;3.47;;;;;;;;;;5064696;28;20595;-86
2020/12/26 03:45:30;;;;;;;5.30;3.30;;;;;;;;;;5064736;28;20493;-86
2020/12/26 03:47:56;;;;;;;4.43;3.80;;;;;;;;;;5067291;28;20476;-87
2020/12/26 03:50:22;;;;;;;7.13;3.23;;;;;;;;;;5104012;28;21036;-86
2020/12/26 03:52:48;;;;;;;7.13;4.00;;;;;;;;;;5102673;28;20809;-87
2020/12/26 03:55:14;;;;;;;4.97;3.73;;;;;;;;;;5105029;28;20412;-86
2020/12/26 03:57:40;;;;;;;4.90;3.43;;;;;;;;;;5103508;28;20470;-86
2020/12/26 04:00:06;;;;;;;9.00;2.77;;;;;;;;;;5094234;28;20516;-85
2020/12/26 04:02:33;;;;;;;4.13;2.87;;;;;;;;;;5095101;28;20456;-84
2020/12/26 04:04:58;;;;;;;8.33;3.60;;;;;;;;;;5057585;28;20501;-85
2020/12/26 04:07:24;;;;;;;6.37;3.63;;;;;;;;;;5062577;28;20508;-85
2020/12/26 04:09:50;;;;;;;7.03;4.77;;;;;;;;;;5057916;28;20428;-85
2020/12/26 04:12:16;;;;;;;5.17;2.90;;;;;;;;;;5055927;28;20464;-84
2020/12/26 04:14:42;;;;;;;6.73;4.40;;;;;;;;;;5056158;28;20438;-85
2020/12/26 04:17:08;;;;;;;5.10;3.60;;;;;;;;;;5056136;28;20404;-84
2020/12/26 04:19:34;;;;;;;6.63;4.30;;;;;;;;;;5070532;28;20846;-85
2020/12/26 04:22:00;;;;;;;9.43;4.40;;;;;;;;;;5077248;28;20474;-85
2020/12/26 04:24:26;;;;;;;5.87;3.87;;;;;;;;;;5088401;28;20500;-85
2020/12/26 04:26:52;;;;;;;10.10;4.70;;;;;;;;;;5095859;28;20465;-84
2020/12/26 04:29:21;;;;;;;7.43;3.53;;;;;;;;;;5072806;28;20465;-84
2020/12/26 04:31:48;;;;;;;6.90;4.40;;;;;;;;;;5058215;28;20429;-85
2020/12/26 04:34:14;;;;;;;7.83;4.53;;;;;;;;;;5066440;28;21026;-84
2020/12/26 04:36:40;;;;;;;8.00;4.20;;;;;;;;;;5078077;28;20994;-85
2020/12/26 04:39:06;;;;;;;8.60;4.77;;;;;;;;;;5087428;28;20473;-85
2020/12/26 04:41:32;;;;;;;8.27;4.53;;;;;;;;;;5098884;28;20400;-85
2020/12/26 04:44:00;;;;;;;7.80;3.97;;;;;;;;;;5097681;28;20459;-85
2020/12/26 04:46:26;;;;;;;8.50;4.93;;;;;;;;;;5098407;28;20404;-85
2020/12/26 04:49:02;;;;;;;7.67;6.33;;;;;;;;;;5092665;28;20531;-85
2020/12/26 04:51:31;;;;;;;10.43;6.70;;;;;;;;;;5079128;28;20739;-85
2020/12/26 04:54:00;;;;;;;11.03;6.43;;;;;;;;;;5080463;28;20952;-85
2020/12/26 04:56:32;;;;;;;8.10;5.03;;;;;;;;;;5082799;28;20503;-85
2020/12/26 04:59:00;;;;;;;8.27;5.50;;;;;;;;;;5098459;28;20457;-85
2020/12/26 05:01:27;;;;;;;9.00;4.53;;;;;;;;;;5099720;28;20495;-85
2020/12/26 05:03:55;;;;;;;11.70;5.57;;;;;;;;;;5075952;28;20456;-85
2020/12/26 05:06:23;;;;;;;9.20;5.00;;;;;;;;;;5078371;28;20416;-85
2020/12/26 05:08:49;;;;;;;10.40;5.60;;;;;;;;;;5078592;28;20844;-85
2020/12/26 05:11:15;;;;;;;9.53;4.83;;;;;;;;;;5099052;28;20429;-84
2020/12/26 05:13:42;;;;;;;9.40;5.10;;;;;;;;;;5093441;28;20506;-85
2020/12/26 05:16:09;;;;;;;8.17;5.33;;;;;;;;;;5078150;28;20442;-85
2020/12/26 05:18:37;;;;;;;8.90;5.30;;;;;;;;;;5097756;28;20439;-84
2020/12/26 05:21:03;;;;;;;10.73;5.30;;;;;;;;;;5054705;28;20849;-84
2020/12/26 05:23:29;;;;;;;10.63;5.37;;;;;;;;;;5078877;28;20473;-84
2020/12/26 05:25:55;;;;;;;10.07;5.10;;;;;;;;;;5097156;28;20432;-85
2020/12/26 05:28:22;;;;;;;14.70;5.10;;;;;;;;;;5100945;28;20450;-85
2020/12/26 05:30:49;;;;;;;8.60;4.77;;;;;;;;;;5079805;28;20451;-85
2020/12/26 05:33:16;;;;;;;8.20;4.80;;;;;;;;;;5100468;28;20746;-84
2020/12/26 05:35:45;;;;;;;9.93;5.27;;;;;;;;;;5079341;28;20454;-84
2020/12/26 05:38:22;;;;;;;10.37;4.90;;;;;;;;;;5080413;28;20846;-84
2020/12/26 05:40:49;;;;;;;7.17;5.00;;;;;;;;;;5081454;28;20920;-85
2020/12/26 05:43:16;;;;;;;10.17;5.00;;;;;;;;;;5081082;28;20452;-85
2020/12/26 05:45:42;;;;;;;10.07;5.60;;;;;;;;;;5064467;28;20466;-84
2020/12/26 05:48:12;;;;;;;6.87;4.87;;;;;;;;;;5061372;28;20434;-85
2020/12/26 05:50:38;;;;;;;8.53;4.37;;;;;;;;;;5090548;28;21000;-85
2020/12/26 05:53:06;;;;;;;11.13;5.10;;;;;;;;;;5103552;28;20487;-85
2020/12/26 05:55:39;;;;;;;7.43;5.30;;;;;;;;;;5067164;28;20437;-84
2020/12/26 05:58:05;;;;;;;9.13;5.80;;;;;;;;;;5067114;28;20417;-87
2020/12/26 06:00:35;;;;;;;8.30;5.13;;;;;;;;;;5092421;28;20519;-84
2020/12/26 06:03:19;;;;;;;10.37;5.60;;;;;;;;;;5075661;28;20548;-83
2020/12/26 06:05:47;;;;;;;6.77;4.20;;;;;;;;;;5077066;28;20440;-84
2020/12/26 06:08:14;;;;;;;8.20;5.43;;;;;;;;;;5074011;28;20444;-84
2020/12/26 06:10:41;;;;;;;6.20;3.83;;;;;;;;;;5086915;28;20434;-84
2020/12/26 06:13:08;;;;;;;8.50;5.00;;;;;;;;;;5094751;28;20408;-84
2020/12/26 06:15:36;;;;;;;7.30;4.47;;;;;;;;;;5116424;28;20412;-85
2020/12/26 06:18:04;;;;;;;5.87;4.10;;;;;;;;;;5122051;28;20417;-84
2020/12/26 06:20:30;;;;;;;6.40;4.50;;;;;;;;;;5095358;28;20433;-85
2020/12/26 06:22:56;;;;;;;10.40;5.50;;;;;;;;;;5077134;28;20456;-84
2020/12/26 06:25:23;;;;;;;8.13;4.70;;;;;;;;;;5074894;28;20482;-84
2020/12/26 06:27:52;;;;;;;8.03;4.67;;;;;;;;;;5078074;28;20425;-84
2020/12/26 06:30:21;;;;;;;8.60;4.50;;;;;;;;;;5067498;28;20457;-84
2020/12/26 06:32:48;;;;;;;8.50;5.30;;;;;;;;;;5058071;28;20406;-84
2020/12/26 06:35:15;;;;;;;6.00;4.27;;;;;;;;;;5070092;28;20556;-84
2020/12/26 06:37:41;;;;;;;10.90;5.80;;;;;;;;;;5078101;28;20444;-84
2020/12/26 06:40:26;;;;;;;6.33;4.90;;;;;;;;;;5068122;28;20795;-84
2020/12/26 06:42:52;;;;;;;8.43;5.20;;;;;;;;;;5110974;28;20444;-87
2020/12/26 06:45:31;;;;;;;12.17;6.03;;;;;;;;;;5093220;28;20451;-84
2020/12/26 06:47:57;;;;;;;5.90;4.20;;;;;;;;;;5117285;28;20432;-84
2020/12/26 06:50:24;;;;;;;7.03;4.33;;;;;;;;;;5106861;28;20439;-85
2020/12/26 06:52:50;;;;;;;6.30;3.83;;;;;;;;;;5100003;28;20404;-84
2020/12/26 06:55:36;;;;;;;7.37;4.60;;;;;;;;;;5096917;28;20448;-85
2020/12/26 06:58:03;;;;;;;8.03;4.10;;;;;;;;;;5099403;28;20436;-84
2020/12/26 07:00:29;;;;;;;8.70;4.67;;;;;;;;;;5084960;28;20913;-84
2020/12/26 07:03:14;;;;;;;8.77;4.63;;;;;;;;;;5079698;28;20456;-84
2020/12/26 07:05:40;;;;;;;7.00;4.20;;;;;;;;;;5095447;28;20446;-85
2020/12/26 07:08:06;;;;;;;6.50;4.50;;;;;;;;;;5101448;28;20415;-84
2020/12/26 07:10:35;;;;;;;7.83;4.47;;;;;;;;;;5083620;28;20430;-84
2020/12/26 07:13:01;;;;;;;5.87;4.10;;;;;;;;;;5059254;28;20451;-84
2020/12/26 07:15:33;;;;;;;7.70;4.63;;;;;;;;;;5080073;28;20503;-84
2020/12/26 07:18:18;;;;;;;5.40;3.43;;;;;;;;;;5099491;28;20503;-84
2020/12/26 07:20:51;;;;;;;5.57;4.40;;;;;;;;;;5084165;28;20428;-84
2020/12/26 07:23:17;;;;;;;9.30;4.47;;;;;;;;;;5099708;28;20456;-84
2020/12/26 07:25:43;;;;;;;10.10;4.83;;;;;;;;;;5096254;28;20473;-84
2020/12/26 07:28:13;;;;;;;5.47;4.27;;;;;;;;;;5099127;28;20420;-84
2020/12/26 07:30:39;;;;;;;6.10;4.27;;;;;;;;;;5071063;28;20424;-85
2020/12/26 07:33:05;;;;;;;9.37;5.10;;;;;;;;;;5080642;28;20762;-84
2020/12/26 07:35:32;;;;;;;10.03;5.57;;;;;;;;;;5079746;28;20436;-84
2020/12/26 07:38:00;;;;;;;7.67;5.40;;;;;;;;;;5077685;28;20441;-84
2020/12/26 07:40:26;;;;;;;7.67;4.97;;;;;;;;;;5079837;28;20558;-85
2020/12/26 07:42:52;;;;;;;8.47;4.93;;;;;;;;;;5080451;28;20468;-84
2020/12/26 07:45:19;;;;;;;9.93;4.80;;;;;;;;;;5084893;28;20451;-85
2020/12/26 07:47:46;;;;;;;7.87;4.87;;;;;;;;;;5100469;28;20424;-84
2020/12/26 07:50:13;;;;;;;8.07;4.97;;;;;;;;;;5097398;28;20419;-84
2020/12/26 07:52:39;;;;;;;10.37;5.70;;;;;;;;;;5100288;28;20491;-85
2020/12/26 07:55:06;;;;;;;22.03;5.97;;;;;;;;;;5097807;28;20435;-84
2020/12/26 07:57:32;;;;;;;9.67;5.50;;;;;;;;;;5101013;28;20451;-85
2020/12/26 07:59:58;;;;;;;7.83;4.40;;;;;;;;;;5083740;28;20765;-85
2020/12/26 08:02:24;;;;;;;7.87;5.13;;;;;;;;;;5078937;28;20458;-84
2020/12/26 08:04:50;;;;;;;8.37;5.80;;;;;;;;;;5074775;28;20482;-84
2020/12/26 08:07:17;;;;;;;9.60;6.13;;;;;;;;;;5071596;28;20424;-84
2020/12/26 08:09:50;;;;;;;8.30;5.47;;;;;;;;;;5075810;28;20420;-84
2020/12/26 08:12:16;;;;;;;11.43;5.43;;;;;;;;;;5078523;28;20401;-84
2020/12/26 08:14:42;;;;;;;6.50;4.93;;;;;;;;;;5079093;28;20481;-85
2020/12/26 08:17:08;;;;;;;7.60;4.83;;;;;;;;;;5060007;28;20430;-84
2020/12/26 08:19:35;;;;;;;9.10;5.37;;;;;;;;;;5082250;23;20493;-72
2020/12/26 08:22:02;;;;;;;7.50;4.20;;;;;;;;;;5071926;28;20980;-71
2020/12/26 08:24:28;;;;;;;7.10;5.20;;;;;;;;;;5073702;28;20797;-71
2020/12/26 08:26:55;;;;;;;10.07;4.90;;;;;;;;;;5072457;28;20413;-71
2020/12/26 08:29:29;;;;;;;5.20;4.30;;;;;;;;;;5073582;28;20535;-71
2020/12/26 08:32:08;;;;;;;6.67;5.43;;;;;;;;;;5038014;28;20504;-71
2020/12/26 08:34:40;;;;;;;6.67;3.93;;;;;;;;;;5052840;28;20405;-71
2020/12/26 08:37:12;;;;;;;10.70;4.37;;;;;;;;;;5046377;28;20417;-71
2020/12/26 08:39:40;;;;;;;7.43;4.30;;;;;;;;;;5048143;28;20445;-71
2020/12/26 08:42:07;;;;;;;4.40;3.33;;;;;;;;;;5048420;28;20458;-67
2020/12/26 08:44:33;;;;;;;6.53;4.17;;;;;;;;;;5051067;28;20422;-67
2020/12/26 08:46:59;;;;;;;4.90;3.93;;;;;;;;;;5052028;28;20430;-67
2020/12/26 08:49:25;;;;;;;8.10;5.17;;;;;;;;;;5052098;28;20503;-67
2020/12/26 08:51:51;;;;;;;7.67;4.23;;;;;;;;;;5052202;28;20499;-66
2020/12/26 08:54:18;;;;;;;8.40;4.00;;;;;;;;;;5053006;28;20406;-67
2020/12/26 08:56:44;;;;;;;7.37;4.10;;;;;;;;;;5050746;28;20437;-66
2020/12/26 08:59:10;;;;;;;9.80;5.20;;;;;;;;;;5053339;28;20748;-67
2020/12/26 09:01:37;;;;;;;4.83;3.40;;;;;;;;;;5052001;28;20423;-67
2020/12/26 09:04:03;;;;;;;6.07;3.80;;;;;;;;;;5053157;28;20445;-67
2020/12/26 09:06:47;;;;;;;3.60;3.10;;;;;;;;;;5051933;28;20487;-67
2020/12/26 09:09:14;;;;;;;5.60;3.20;;;;;;;;;;5033763;28;20476;-67
2020/12/26 09:11:40;;;;;;;8.83;4.13;;;;;;;;;;5052156;28;20491;-67
2020/12/26 09:14:18;;;;;;;5.93;3.90;;;;;;;;;;5052844;28;20402;-67
2020/12/26 09:16:44;;;;;;;7.13;3.67;;;;;;;;;;5051861;28;20441;-67
2020/12/26 09:19:10;;;;;;;6.10;3.80;;;;;;;;;;5052556;28;20502;-67
2020/12/26 09:21:36;;;;;;;7.37;3.40;;;;;;;;;;5044137;28;20434;-67
2020/12/26 09:24:02;;;;;;;6.53;4.20;;;;;;;;;;5032711;28;20935;-67
2020/12/26 09:26:39;;;;;;;5.73;3.67;;;;;;;;;;5039152;28;20475;-66
2020/12/26 09:29:05;;;;;;;6.10;4.13;;;;;;;;;;5055362;28;20457;-67
2020/12/26 09:31:38;;;;;;;6.87;3.97;;;;;;;;;;5055190;28;20433;-67
2020/12/26 09:34:17;;;;;;;4.50;2.80;;;;;;;;;;5056461;28;20781;-67
2020/12/26 09:36:43;;;;;;;7.37;3.63;;;;;;;;;;5053803;28;20430;-66
2020/12/26 09:39:10;;;;;;;5.70;3.87;;;;;;;;;;5052810;28;20437;-66
2020/12/26 09:41:43;;;;;;;7.47;3.33;;;;;;;;;;5049732;28;20433;-67
2020/12/26 09:44:10;;;;;;;6.80;3.40;;;;;;;;;;5052751;28;20556;-66
2020/12/26 09:46:36;;;;;;;5.63;3.73;;;;;;;;;;5051690;28;20926;-66
2020/12/26 09:49:02;;;;;;;5.80;3.07;;;;;;;;;;5054532;28;20962;-66
2020/12/26 09:51:28;;;;;;;3.50;2.97;;;;;;;;;;5055655;28;20429;-66
2020/12/26 09:53:54;;;;;;;6.80;3.80;;;;;;;;;;5056484;28;20807;-66
2020/12/26 09:56:20;;;;;;;4.77;2.63;;;;;;;;;;5055569;28;20430;-66
2020/12/26 09:58:48;;;;;;;2.73;1.80;;;;;;;;;;5056681;28;20449;-65
2020/12/26 10:01:17;;;;;;;4.40;2.30;;;;;;;;;;5054266;28;20440;-67
2020/12/26 10:03:44;;;;;;;3.80;2.00;;;;;;;;;;5056305;28;20459;-66
2020/12/26 10:06:13;;;;;;;2.93;2.00;;;;;;;;;;5055163;28;20426;-66
2020/12/26 10:08:39;;;;;;;3.47;2.30;;;;;;;;;;5056012;28;20417;-66
2020/12/26 10:11:06;;;;;;;2.63;2.07;;;;;;;;;;5053361;28;20509;-66
2020/12/26 10:13:32;;;;;;;2.47;1.90;;;;;;;;;;5056415;28;20437;-66
2020/12/26 10:15:58;;;;;;;6.43;2.43;;;;;;;;;;5055815;28;20501;-67
2020/12/26 10:18:24;;;;;;;4.67;1.93;;;;;;;;;;5057226;28;20473;-67
2020/12/26 10:20:50;;;;;;;3.70;2.77;;;;;;;;;;5057449;28;20394;-66
2020/12/26 10:23:16;;;;;;;3.40;2.47;;;;;;;;;;5056709;28;20468;-67
2020/12/26 10:25:42;;;;;;;3.47;2.53;;;;;;;;;;5058453;28;20409;-67
2020/12/26 10:28:08;;;;;;;3.33;2.13;;;;;;;;;;5057657;28;20449;-67
2020/12/26 10:30:34;;;;;;;6.00;2.60;;;;;;;;;;5058513;28;20401;-67
2020/12/26 10:33:00;;;;;;;5.03;2.63;;;;;;;;;;5057971;28;20858;-67
2020/12/26 10:35:26;;;;;;;4.43;2.50;;;;;;;;;;5057741;28;20471;-67
2020/12/26 10:37:52;;;;;;;3.27;2.00;;;;;;;;;;5057827;28;20437;-67
2020/12/26 10:40:18;;;;;;;4.20;2.37;;;;;;;;;;5058756;28;20426;-67
2020/12/26 10:42:44;;;;;;;4.00;2.70;;;;;;;;;;5052362;28;20511;-66
2020/12/26 10:45:10;;;;;;;4.73;2.63;;;;;;;;;;5058453;28;20406;-66
2020/12/26 10:47:36;;;;;;;3.70;2.50;;;;;;;;;;5036151;28;21021;-67
2020/12/26 10:50:02;;;;;;;4.03;2.50;;;;;;;;;;5038965;28;20446;-67
2020/12/26 10:52:29;;;;;;;3.00;1.90;;;;;;;;;;5048536;28;20441;-66
2020/12/26 10:54:55;;;;;;;3.97;2.20;;;;;;;;;;5058469;28;20442;-68
2020/12/26 10:57:21;;;;;;;7.40;2.17;;;;;;;;;;5038864;28;20509;-66
2020/12/26 10:59:47;;;;;;;6.00;2.37;;;;;;;;;;5058299;28;20919;-67
2020/12/26 11:02:13;;;;;;;6.90;2.37;;;;;;;;;;5057045;28;20522;-66
2020/12/26 11:04:39;;;;;;;9.00;2.10;;;;;;;;;;5057746;28;20406;-67
2020/12/26 11:07:05;;;;;;;3.20;1.93;;;;;;;;;;5057576;28;20426;-67
2020/12/26 11:09:31;;;;;;;3.30;2.30;;;;;;;;;;5057918;28;20418;-66
2020/12/26 11:11:57;;;;;;;2.90;1.93;;;;;;;;;;5057067;28;20452;-67
2020/12/26 11:14:23;;;;;;;3.10;1.93;;;;;;;;;;5057396;28;20410;-67
2020/12/26 11:16:53;;;;;;;2.40;1.70;;;;;;;;;;5056949;28;20422;-66
2020/12/26 11:19:19;;;;;;;2.90;2.13;;;;;;;;;;5058233;28;20537;-66
2020/12/26 11:21:50;;;;;;;2.60;1.70;;;;;;;;;;5056422;28;20552;-67
2020/12/26 11:24:16;;;;;;;2.30;1.90;;;;;;;;;;5058073;28;20410;-66
2020/12/26 11:26:42;;;;;;;3.00;1.73;;;;;;;;;;5056959;28;20437;-66
2020/12/26 11:29:08;;;;;;;3.20;2.30;;;;;;;;;;5058062;28;20442;-66
2020/12/26 11:31:34;;;;;;;2.10;1.90;;;;;;;;;;5055929;28;20386;-65
2020/12/26 11:34:00;;;;;;;3.40;2.03;;;;;;;;;;5056405;28;20437;-66
2020/12/26 11:36:27;;;;;;;3.80;1.93;;;;;;;;;;5055689;28;20410;-66
2020/12/26 11:38:53;;;;;;;4.87;1.97;;;;;;;;;;5055969;28;20560;-66
2020/12/26 11:41:24;;;;;;;2.20;1.63;;;;;;;;;;5056116;28;20429;-66
2020/12/26 11:43:50;;;;;;;2.90;2.00;;;;;;;;;;5051406;28;20466;-66
2020/12/26 11:46:16;;;;;;;2.50;2.30;;;;;;;;;;5047124;28;20438;-67
2020/12/26 11:48:42;;;;;;;3.40;2.00;;;;;;;;;;5055633;28;20453;-67
2020/12/26 11:51:09;;;;;;;15.43;2.50;;;;;;;;;;5057437;28;20394;-67
2020/12/26 11:53:35;;;;;;;3.07;2.07;;;;;;;;;;5056471;28;20487;-68
2020/12/26 11:56:01;;;;;;;3.27;2.40;;;;;;;;;;5057061;28;20406;-67
2020/12/26 11:58:27;;;;;;;4.13;2.23;;;;;;;;;;5055499;28;20542;-68
2020/12/26 12:00:56;;;;;;;7.87;2.80;;;;;;;;;;5056874;28;20417;-67
2020/12/26 12:03:22;;;;;;;3.50;2.10;;;;;;;;;;5056418;28;20458;-67
2020/12/26 12:05:48;;;;;;;2.37;1.90;;;;;;;;;;5057241;28;20420;-67
2020/12/26 12:08:14;;;;;;;5.73;2.90;;;;;;;;;;5056128;28;20446;-67
2020/12/26 12:10:41;;;;;;;2.20;2.00;;;;;;;;;;5056694;28;20403;-67
2020/12/26 12:13:07;;;;;;;3.37;1.80;;;;;;;;;;5056643;28;20485;-67
2020/12/26 12:15:34;;;;;;;4.90;2.73;;;;;;;;;;5056825;28;20409;-66
2020/12/26 12:18:00;;;;;;;2.97;2.00;;;;;;;;;;5055860;28;20518;-67
2020/12/26 12:20:29;;;;;;;3.87;2.00;;;;;;;;;;5057267;28;20944;-66
2020/12/26 12:22:56;;;;;;;5.30;1.40;;;;;;;;;;5055711;28;20476;-66
2020/12/26 12:25:22;;;;;;;3.10;2.10;;;;;;;;;;5055768;28;20427;-66
2020/12/26 12:27:49;;;;;;;4.00;2.20;;;;;;;;;;5053453;28;20453;-68
2020/12/26 12:30:15;;;;;;;3.70;1.83;;;;;;;;;;5055160;28;20576;-69
2020/12/26 12:32:41;;;;;;;2.40;2.00;;;;;;;;;;5052747;28;20428;-69
2020/12/26 12:35:07;;;;;;;3.90;2.20;;;;;;;;;;5064388;28;20525;-68
2020/12/26 12:37:33;;;;;;;3.07;2.13;;;;;;;;;;5054166;28;20418;-68
2020/12/26 12:39:59;;;;;;;2.67;2.03;;;;;;;;;;5054481;28;20520;-70
2020/12/26 12:42:29;;;;;;;4.80;2.70;;;;;;;;;;5052081;28;20552;-68
2020/12/26 12:44:55;;;;;;;4.63;2.00;;;;;;;;;;5053718;28;20493;-67
2020/12/26 12:47:24;;;;;;;3.73;2.30;;;;;;;;;;5048320;28;20873;-68
2020/12/26 12:49:51;;;;;;;2.90;1.57;;;;;;;;;;5015677;28;20985;-67
2020/12/26 12:52:17;;;;;;;2.70;1.87;;;;;;;;;;5033982;28;20442;-67
2020/12/26 12:54:43;;;;;;;6.10;2.20;;;;;;;;;;5052637;28;20925;-67
2020/12/26 12:57:09;;;;;;;2.83;1.90;;;;;;;;;;5053296;28;20525;-67
2020/12/26 12:59:36;;;;;;;2.47;2.00;;;;;;;;;;5052245;28;20450;-67
2020/12/26 13:02:03;;;;;;;4.20;2.10;;;;;;;;;;5052101;28;20980;-67
2020/12/26 13:04:29;;;;;;;3.33;1.73;;;;;;;;;;5052112;28;20759;-67
2020/12/26 13:06:55;;;;;;;5.70;2.17;;;;;;;;;;5053202;28;20397;-67
2020/12/26 13:09:21;;;;;;;3.07;2.13;;;;;;;;;;5051651;28;20512;-69
2020/12/26 13:11:47;;;;;;;2.60;1.97;;;;;;;;;;5053069;28;20425;-70
2020/12/26 13:14:13;;;;;;;3.03;2.03;;;;;;;;;;5051015;28;20426;-69
2020/12/26 13:16:40;;;;;;;2.93;1.97;;;;;;;;;;5052878;28;20492;-68
2020/12/26 13:19:06;;;;;;;2.90;1.93;;;;;;;;;;5050555;28;20494;-68
2020/12/26 13:21:32;;;;;;;4.43;1.53;;;;;;;;;;5052969;28;20429;-68
2020/12/26 13:23:58;;;;;;;3.03;2.13;;;;;;;;;;5050937;28;21024;-68
2020/12/26 13:26:24;;;;;;;2.53;1.90;;;;;;;;;;5051893;28;20405;-67
2020/12/26 13:28:50;;;;;;;3.63;1.77;;;;;;;;;;5051877;28;20533;-68
2020/12/26 13:31:24;;;;;;;3.00;1.90;;;;;;;;;;5053347;28;20418;-68
2020/12/26 13:33:50;;;;;;;2.47;1.77;;;;;;;;;;5046570;28;20442;-67
2020/12/26 13:36:16;;;;;;;4.20;2.10;;;;;;;;;;5032811;28;20410;-67
2020/12/26 13:38:43;;;;;;;2.53;1.90;;;;;;;;;;5036965;28;20477;-67
2020/12/26 13:41:09;;;;;;;3.97;2.57;;;;;;;;;;5051962;28;20491;-67
2020/12/26 13:43:35;;;;;;;3.73;2.23;;;;;;;;;;5051675;28;21088;-68
2020/12/26 13:46:01;;;;;;;6.90;2.20;;;;;;;;;;5052949;28;20406;-68
2020/12/26 13:48:27;;;;;;;4.40;2.50;;;;;;;;;;5048204;28;20513;-68
2020/12/26 13:50:53;;;;;;;5.73;2.63;;;;;;;;;;5053526;28;20488;-68
2020/12/26 13:53:19;;;;;;;3.33;1.93;;;;;;;;;;5051664;28;20887;-68
2020/12/26 13:55:45;;;;;;;7.63;2.40;;;;;;;;;;5052705;28;20398;-68
2020/12/26 13:58:11;;;;;;;4.70;2.10;;;;;;;;;;5052433;28;20414;-68
2020/12/26 14:00:37;;;;;;;2.07;1.70;;;;;;;;;;5048512;28;20451;-68
2020/12/26 14:03:03;;;;;;;2.40;1.70;;;;;;;;;;5052534;28;20454;-68
2020/12/26 14:05:29;;;;;;;4.77;2.67;;;;;;;;;;5051552;28;20906;-68
2020/12/26 14:07:57;;;;;;;2.67;1.80;;;;;;;;;;5051689;28;20432;-68
2020/12/26 14:10:23;;;;;;;3.30;1.80;;;;;;;;;;5050695;28;20425;-68
2020/12/26 14:12:49;;;;;;;1.90;1.50;;;;;;;;;;5052665;28;20475;-68
2020/12/26 14:15:15;;;;;;;4.07;1.87;;;;;;;;;;5051850;28;20430;-67
2020/12/26 14:17:41;;;;;;;2.60;1.70;;;;;;;;;;5053085;28;20482;-67
2020/12/26 14:20:07;;;;;;;2.90;1.50;;;;;;;;;;5049464;28;20441;-67
2020/12/26 14:22:33;;;;;;;3.50;1.73;;;;;;;;;;5052165;28;20453;-67
2020/12/26 14:25:00;;;;;;;2.40;1.80;;;;;;;;;;5051505;28;20422;-67
2020/12/26 14:27:26;;;;;;;2.30;1.63;;;;;;;;;;5051633;28;20518;-67
2020/12/26 14:29:52;;;;;;;2.20;1.50;;;;;;;;;;5050165;28;21017;-68
2020/12/26 14:32:18;;;;;;;2.30;1.43;;;;;;;;;;5052414;28;20492;-68
2020/12/26 14:34:45;;;;;;;4.73;2.67;;;;;;;;;;5034422;28;20461;-68
2020/12/26 14:37:11;;;;;;;2.57;1.60;;;;;;;;;;5055932;28;20414;-68
2020/12/26 14:39:37;;;;;;;2.07;1.47;;;;;;;;;;5036515;28;20452;-68
2020/12/26 14:42:04;;;;;;;4.90;1.90;;;;;;;;;;5055900;28;21009;-67